Time;durP1;ratioP1;P1;durP2;ratioP2;P2;SDS_P1;SDS_P2;PMS_P1;PMS_P2;Temp;Humidity;BMP_temperature;BMP_pressure;BME280_temperature;BME280_humidity;BME280_pressure;Samples;Min_cycle;Max_cycle;Signal;HPM_P1;HPM_P2
2022/09/26 00:01:37;;;;;;;;;;;;;;;;;;4996701;28;7039;-87
2022/09/26 00:04:08;;;;;;;;;;;;;;;;;;4996471;28;8704;-87
2022/09/26 00:06:33;;;;;;;;;;;;;;;;;;4996712;28;7168;-88
2022/09/26 00:08:59;;;;;;;;;;;;;;;;;;4997107;28;7139;-87
2022/09/26 00:11:30;;;;;;;;;;;;;;;;;;4980501;28;7246;-88
2022/09/26 00:13:57;;;;;;;;;;;;;;;;;;4997514;28;7218;-87
2022/09/26 00:16:23;;;;;;;;;;;;;;;;;;4996238;28;6978;-88
2022/09/26 00:18:51;;;;;;;;;;;;;;;;;;4996519;28;7170;-87
2022/09/26 00:21:17;;;;;;;;;;;;;;;;;;4996191;28;7025;-87
2022/09/26 00:23:43;;;;;;;;;;;;;;;;;;4996408;28;7457;-88
2022/09/26 00:26:11;;;;;;;;;;;;;;;;;;4996721;28;7141;-87
2022/09/26 00:28:37;;;;;;;;;;;;;;;;;;4996497;28;7014;-88
2022/09/26 00:31:04;;;;;;;;;;;;;;;;;;4997106;28;7021;-88
2022/09/26 00:33:29;;;;;;;;;;;;;;;;;;4996226;28;7173;-87
2022/09/26 00:35:55;;;;;;;;;;;;;;;;;;4980801;28;7029;-87
2022/09/26 00:38:21;;;;;;;;;;;;;;;;;;4979989;28;7390;-86
2022/09/26 00:40:47;;;;;;;;;;;;;;;;;;4996820;28;7020;-87
2022/09/26 00:43:28;;;;;;;;;;;;;;;;;;4996494;28;7183;-87
2022/09/26 00:45:57;;;;;;;;;;;;;;;;;;4996049;28;8412;-87
2022/09/26 00:48:24;;;;;;;;;;;;;;;;;;4996284;28;7237;-87
2022/09/26 00:50:51;;;;;;;;;;;;;;;;;;4996649;28;7514;-86
2022/09/26 00:53:19;;;;;;;;;;;;;;;;;;4995852;28;8357;-87
2022/09/26 00:55:53;;;;;;;;;;;;;;;;;;4996022;28;7137;-87
2022/09/26 00:58:19;;;;;;;;;;;;;;;;;;4995951;28;7252;-87
2022/09/26 01:00:46;;;;;;;;;;;;;;;;;;4995832;28;8559;-87
2022/09/26 01:03:15;;;;;;;;;;;;;;;;;;4995713;28;8287;-87
2022/09/26 01:05:42;;;;;;;;;;;;;;;;;;4995404;28;7081;-88
2022/09/26 01:08:08;;;;;;;;;;;;;;;;;;4995424;28;8754;-88
2022/09/26 01:10:37;;;;;;;;;;;;;;;;;;4995413;28;7222;-88
2022/09/26 01:13:04;;;;;;;;;;;;;;;;;;4978855;28;8327;-87
2022/09/26 01:15:30;;;;;;;;;;;;;;;;;;4996351;28;7032;-87
2022/09/26 01:17:56;;;;;;;;;;;;;;;;;;4995688;28;7094;-87
2022/09/26 01:20:29;;;;;;;;;;;;;;;;;;4995162;28;7172;-88
2022/09/26 01:22:54;;;;;;;;;;;;;;;;;;4995126;28;7186;-88
2022/09/26 01:25:19;;;;;;;;;;;;;;;;;;4995171;28;8313;-88
2022/09/26 01:27:56;;;;;;;;;;;;;;;;;;4995100;28;7182;-88
2022/09/26 01:30:28;;;;;;;;;;;;;;;;;;4995758;28;7048;-88
2022/09/26 01:32:59;;;;;;;;;;;;;;;;;;4995399;28;8344;-88
2022/09/26 01:35:34;;;;;;;;;;;;;;;;;;4995016;28;7045;-87
2022/09/26 01:38:17;;;;;;;;;;;;;;;;;;4995199;28;7169;-88
2022/09/26 01:40:54;;;;;;;;;;;;;;;;;;4995026;28;7122;-87
2022/09/26 01:43:43;;;;;;;;;;;;;;;;;;4995332;28;8770;-89
2022/09/26 01:46:34;;;;;;;;;;;;;;;;;;4994970;28;8400;-87
2022/09/26 01:49:11;;;;;;;;;;;;;;;;;;4995741;28;6997;-89
2022/09/26 01:51:49;;;;;;;;;;;;;;;;;;4995082;28;8427;-87
2022/09/26 01:54:18;;;;;;;;;;;;;;;;;;4994888;28;7227;-88
2022/09/26 01:56:46;;;;;;;;;;;;;;;;;;4995343;28;7254;-88
2022/09/26 01:59:34;;;;;;;;;;;;;;;;;;4995168;28;8656;-87
2022/09/26 02:02:05;;;;;;;;;;;;;;;;;;4994879;28;9217;-88
2022/09/26 02:04:37;;;;;;;;;;;;;;;;;;4978762;28;7039;-89
2022/09/26 02:07:09;;;;;;;;;;;;;;;;;;4994850;28;7116;-87
2022/09/26 02:09:44;;;;;;;;;;;;;;;;;;4994431;28;7611;-88
2022/09/26 02:12:14;;;;;;;;;;;;;;;;;;4994047;28;7897;-88
2022/09/26 02:14:44;;;;;;;;;;;;;;;;;;4995284;28;7146;-88
2022/09/26 02:17:12;;;;;;;;;;;;;;;;;;4995700;28;7154;-85
2022/09/26 02:19:40;;;;;;;;;;;;;;;;;;4995694;28;8264;-88
2022/09/26 02:22:06;;;;;;;;;;;;;;;;;;4994687;28;8510;-88
2022/09/26 02:24:32;;;;;;;;;;;;;;;;;;4994569;28;7013;-87
2022/09/26 02:26:58;;;;;;;;;;;;;;;;;;4994520;28;7309;-88
2022/09/26 02:29:25;;;;;;;;;;;;;;;;;;4994789;28;8825;-88
2022/09/26 02:31:55;;;;;;;;;;;;;;;;;;4994318;28;8526;-89
2022/09/26 02:34:20;;;;;;;;;;;;;;;;;;4995851;28;7173;-89
2022/09/26 02:36:46;;;;;;;;;;;;;;;;;;4996100;28;7170;-88
2022/09/26 02:39:12;;;;;;;;;;;;;;;;;;4994862;28;7071;-87
2022/09/26 02:41:37;;;;;;;;;;;;;;;;;;4995541;28;7142;-87
2022/09/26 02:44:15;;;;;;;;;;;;;;;;;;4995271;28;7135;-88
2022/09/26 02:47:03;;;;;;;;;;;;;;;;;;4995935;28;7269;-86
2022/09/26 02:49:48;;;;;;;;;;;;;;;;;;4995582;28;8373;-88
2022/09/26 02:52:37;;;;;;;;;;;;;;;;;;4978991;28;7030;-88
2022/09/26 02:55:16;;;;;;;;;;;;;;;;;;4995261;28;7259;-89
2022/09/26 02:58:06;;;;;;;;;;;;;;;;;;4995985;28;7290;-86
2022/09/26 03:00:42;;;;;;;;;;;;;;;;;;4995878;28;7198;-89
2022/09/26 03:03:26;;;;;;;;;;;;;;;;;;4995774;28;8354;-88
2022/09/26 03:05:56;;;;;;;;;;;;;;;;;;4995565;28;7238;-86
2022/09/26 03:08:25;;;;;;;;;;;;;;;;;;4997117;28;7628;-85
2022/09/26 03:10:53;;;;;;;;;;;;;;;;;;4996880;28;7005;-87
2022/09/26 03:13:20;;;;;;;;;;;;;;;;;;4993030;28;7068;-87
2022/09/26 03:15:51;;;;;;;;;;;;;;;;;;4977396;28;7148;-89
2022/09/26 03:18:23;;;;;;;;;;;;;;;;;;4985082;28;6982;-85
2022/09/26 03:20:53;;;;;;;;;;;;;;;;;;5000762;28;7232;-82
2022/09/26 03:23:24;;;;;;;;;;;;;;;;;;4984341;28;6872;-84
2022/09/26 03:25:59;;;;;;;;;;;;;;;;;;4989131;28;6859;-82
2022/09/26 03:28:25;;;;;;;;;;;;;;;;;;4987190;28;7239;-87
2022/09/26 03:30:54;;;;;;;;;;;;;;;;;;4985570;28;6955;-85
2022/09/26 03:33:21;;;;;;;;;;;;;;;;;;4986524;28;7013;-83
2022/09/26 03:35:47;;;;;;;;;;;;;;;;;;4985438;28;7091;-83
2022/09/26 03:38:12;;;;;;;;;;;;;;;;;;4984490;28;7093;-87
2022/09/26 03:40:42;;;;;;;;;;;;;;;;;;4986065;28;7249;-83
2022/09/26 03:43:10;;;;;;;;;;;;;;;;;;4985715;28;7024;-84
2022/09/26 03:45:40;;;;;;;;;;;;;;;;;;4966477;28;6868;-87
2022/09/26 03:48:05;;;;;;;;;;;;;;;;;;4965921;28;6971;-83
2022/09/26 03:50:32;;;;;;;;;;;;;;;;;;4966870;28;7006;-84
2022/09/26 03:52:59;;;;;;;;;;;;;;;;;;4966975;28;6942;-84
2022/09/26 03:55:25;;;;;;;;;;;;;;;;;;4964398;28;7244;-83
2022/09/26 03:57:54;;;;;;;;;;;;;;;;;;4965020;28;6995;-87
2022/09/26 04:00:20;;;;;;;;;;;;;;;;;;4965257;28;7495;-87
2022/09/26 04:02:45;;;;;;;;;;;;;;;;;;4948890;28;7233;-85
2022/09/26 04:05:11;;;;;;;;;;;;;;;;;;4965043;28;7938;-83
2022/09/26 04:07:37;;;;;;;;;;;;;;;;;;4962114;28;7188;-86
2022/09/26 04:10:03;;;;;;;;;;;;;;;;;;4962536;28;6923;-86
2022/09/26 04:12:29;;;;;;;;;;;;;;;;;;4963554;28;6865;-85
2022/09/26 04:14:54;;;;;;;;;;;;;;;;;;4959316;28;7203;-87
2022/09/26 04:17:19;;;;;;;;;;;;;;;;;;4959744;28;8521;-85
2022/09/26 04:19:45;;;;;;;;;;;;;;;;;;4957291;28;7087;-86
2022/09/26 04:22:11;;;;;;;;;;;;;;;;;;4957356;28;7104;-88
2022/09/26 04:24:36;;;;;;;;;;;;;;;;;;4956959;28;7018;-88
2022/09/26 04:27:05;;;;;;;;;;;;;;;;;;4962002;28;6994;-84
2022/09/26 04:29:31;;;;;;;;;;;;;;;;;;4948169;28;6956;-85
2022/09/26 04:31:57;;;;;;;;;;;;;;;;;;4963283;28;7087;-86
2022/09/26 04:34:23;;;;;;;;;;;;;;;;;;4964407;28;6986;-83
2022/09/26 04:36:51;;;;;;;;;;;;;;;;;;4983044;28;7049;-85
2022/09/26 04:39:25;;;;;;;;;;;;;;;;;;4985950;28;7030;-82
2022/09/26 04:41:52;;;;;;;;;;;;;;;;;;4998633;28;6916;-88
2022/09/26 04:44:17;;;;;;;;;;;;;;;;;;4980348;28;7084;-87
2022/09/26 04:46:43;;;;;;;;;;;;;;;;;;4979843;28;7086;-87
2022/09/26 04:49:09;;;;;;;;;;;;;;;;;;4978618;28;7461;-87
2022/09/26 04:51:36;;;;;;;;;;;;;;;;;;4978026;28;7151;-87
2022/09/26 04:54:01;;;;;;;;;;;;;;;;;;4977620;28;7260;-88
2022/09/26 04:56:28;;;;;;;;;;;;;;;;;;4977394;28;7495;-89
2022/09/26 04:58:55;;;;;;;;;;;;;;;;;;4976952;28;7024;-88
2022/09/26 05:01:21;;;;;;;;;;;;;;;;;;4976964;28;7069;-88
2022/09/26 05:03:48;;;;;;;;;;;;;;;;;;4976735;28;8419;-89
2022/09/26 05:06:14;;;;;;;;;;;;;;;;;;4976659;28;7047;-87
2022/09/26 05:08:45;;;;;;;;;;;;;;;;;;4976385;28;7057;-88
2022/09/26 05:11:11;;;;;;;;;;;;;;;;;;4976612;28;7183;-88
2022/09/26 05:13:37;;;;;;;;;;;;;;;;;;4976770;28;7260;-88
2022/09/26 05:16:05;;;;;;;;;;;;;;;;;;4976193;28;8519;-89
2022/09/26 05:18:31;;;;;;;;;;;;;;;;;;4977145;28;6971;-87
2022/09/26 05:21:00;;;;;;;;;;;;;;;;;;4977864;28;7190;-89
2022/09/26 05:26:21;;;;;;;;;;;;;;;;;;4983497;28;6900;-87
2022/09/26 05:28:49;;;;;;;;;;;;;;;;;;4980235;28;7085;-87
2022/09/26 05:31:15;;;;;;;;;;;;;;;;;;4981146;28;7038;-89
2022/09/26 05:33:41;;;;;;;;;;;;;;;;;;4980870;28;8710;-86
2022/09/26 05:36:07;;;;;;;;;;;;;;;;;;4978639;28;6908;-88
2022/09/26 05:38:32;;;;;;;;;;;;;;;;;;4979208;28;7032;-88
2022/09/26 05:40:58;;;;;;;;;;;;;;;;;;4979952;28;8727;-87
2022/09/26 05:43:24;;;;;;;;;;;;;;;;;;4981525;28;7326;-88
2022/09/26 05:45:50;;;;;;;;;;;;;;;;;;4977622;28;7216;-85
2022/09/26 05:48:16;;;;;;;;;;;;;;;;;;4977431;28;6984;-89
2022/09/26 05:50:45;;;;;;;;;;;;;;;;;;4982284;28;8397;-84
2022/09/26 05:53:34;;;;;;;;;;;;;;;;;;4997375;28;6836;-82
2022/09/26 05:56:00;;;;;;;;;;;;;;;;;;5004672;28;7017;-85
2022/09/26 05:58:31;;;;;;;;;;;;;;;;;;4992768;28;6836;-82
2022/09/26 06:01:05;;;;;;;;;;;;;;;;;;5005158;28;7098;-86
2022/09/26 06:03:33;;;;;;;;;;;;;;;;;;5006803;28;7119;-85
2022/09/26 06:06:13;;;;;;;;;;;;;;;;;;4990435;28;6928;-86
2022/09/26 06:08:39;;;;;;;;;;;;;;;;;;4987291;28;7024;-90
2022/09/26 06:11:07;;;;;;;;;;;;;;;;;;5002588;28;8781;-84
2022/09/26 06:13:37;;;;;;;;;;;;;;;;;;5006454;28;8538;-82
2022/09/26 06:16:16;;;;;;;;;;;;;;;;;;4991204;28;6852;-82
2022/09/26 06:18:42;;;;;;;;;;;;;;;;;;4989650;28;7078;-85
2022/09/26 06:21:10;;;;;;;;;;;;;;;;;;4970983;28;7008;-87
2022/09/26 06:23:36;;;;;;;;;;;;;;;;;;4970768;28;7371;-88
2022/09/26 06:26:23;;;;;;;;;;;;;;;;;;4977822;28;7105;-81
2022/09/26 06:38:38;;;;;;;;;;;;;;;;;;4984681;28;6696;-81
2022/09/26 06:45:01;;;;;;;;;;;;;;;;;;4928563;29;6766;-81
2022/09/26 06:54:30;;;;;;;;;;;;;;;;;;4882117;29;6737;-81
2022/09/26 07:09:41;;;;;;;;;;;;;;;;;;4875769;29;6856;-81
2022/09/26 07:12:07;;;;;;;;;;;;;;;;;;4867335;29;7032;-81
2022/09/26 07:14:32;;;;;;;;;;;;;;;;;;4894173;29;8396;-81
2022/09/26 07:16:58;;;;;;;;;;;;;;;;;;4894123;29;7136;-81
2022/09/26 07:19:23;;;;;;;;;;;;;;;;;;4882336;29;7007;-85
2022/09/26 07:21:49;;;;;;;;;;;;;;;;;;4898687;29;7234;-85
2022/09/26 07:24:15;;;;;;;;;;;;;;;;;;4903799;29;6798;-85
2022/09/26 07:26:41;;;;;;;;;;;;;;;;;;4925810;28;7004;-85
2022/09/26 07:29:07;;;;;;;;;;;;;;;;;;4962297;28;7217;-86
2022/09/26 07:31:33;;;;;;;;;;;;;;;;;;4973988;28;8677;-80
2022/09/26 07:33:58;;;;;;;;;;;;;;;;;;4973374;28;8657;-80
2022/09/26 07:36:24;;;;;;;;;;;;;;;;;;4974082;28;7138;-80
2022/09/26 07:38:50;;;;;;;;;;;;;;;;;;4973680;28;8728;-80
2022/09/26 07:41:16;;;;;;;;;;;;;;;;;;4973471;28;8676;-81
2022/09/26 07:43:42;;;;;;;;;;;;;;;;;;4973456;28;8416;-82
2022/09/26 07:51:37;;;;;;;;;;;;;;;;;;4990813;28;7028;-80
2022/09/26 07:54:04;;;;;;;;;;;;;;;;;;4974027;28;7036;-79
2022/09/26 07:56:32;;;;;;;;;;;;;;;;;;4973750;28;6853;-79
2022/09/26 07:59:00;;;;;;;;;;;;;;;;;;4995442;28;8315;-80
2022/09/26 08:01:26;;;;;;;;;;;;;;;;;;4999341;28;7041;-79
2022/09/26 08:03:53;;;;;;;;;;;;;;;;;;4994749;28;7145;-79
2022/09/26 08:06:19;;;;;;;;;;;;;;;;;;4991922;28;7045;-80
2022/09/26 08:08:46;;;;;;;;;;;;;;;;;;4991813;28;8326;-80
2022/09/26 08:11:16;;;;;;;;;;;;;;;;;;4990063;28;7193;-80
2022/09/26 08:13:42;;;;;;;;;;;;;;;;;;4992091;28;8433;-83
2022/09/26 08:16:08;;;;;;;;;;;;;;;;;;4992326;28;7025;-80
2022/09/26 08:18:33;;;;;;;;;;;;;;;;;;4992153;28;7000;-80
2022/09/26 08:21:04;;;;;;;;;;;;;;;;;;4992058;28;6987;-83
2022/09/26 08:23:30;;;;;;;;;;;;;;;;;;4992480;28;7110;-80
2022/09/26 08:25:56;;;;;;;;;;;;;;;;;;4992252;28;6847;-80
2022/09/26 08:28:22;;;;;;;;;;;;;;;;;;4992679;28;8378;-81
2022/09/26 08:30:48;;;;;;;;;;;;;;;;;;4992231;28;7353;-83
2022/09/26 08:33:15;;;;;;;;;;;;;;;;;;4991961;28;7138;-79
2022/09/26 08:35:40;;;;;;;;;;;;;;;;;;4992161;28;7036;-79
2022/09/26 08:38:07;;;;;;;;;;;;;;;;;;4992044;28;6817;-79
2022/09/26 08:40:51;;;;;;;;;;;;;;;;;;4992457;28;7135;-80
2022/09/26 08:43:32;;;;;;;;;;;;;;;;;;4992550;28;7162;-79
2022/09/26 08:49:14;;;;;;;;;;;;;;;;;;5009711;28;6943;-79
2022/09/26 08:51:45;;;;;;;;;;;;;;;;;;4992488;28;7239;-79
2022/09/26 08:54:10;;;;;;;;;;;;;;;;;;4991955;28;7155;-80
2022/09/26 08:56:40;;;;;;;;;;;;;;;;;;4991955;28;8385;-79
2022/09/26 08:59:13;;;;;;;;;;;;;;;;;;4991991;28;7155;-79
2022/09/26 09:01:43;;;;;;;;;;;;;;;;;;4990943;28;7270;-79
2022/09/26 09:04:34;;;;;;;;;;;;;;;;;;4990587;28;6894;-79
2022/09/26 09:07:10;;;;;;;;;;;;;;;;;;4968606;28;6830;-80
2022/09/26 09:09:37;;;;;;;;;;;;;;;;;;4990744;28;7424;-80
2022/09/26 09:12:03;;;;;;;;;;;;;;;;;;4990325;28;8422;-79
2022/09/26 09:14:34;;;;;;;;;;;;;;;;;;4990598;28;7149;-84
2022/09/26 09:17:19;;;;;;;;;;;;;;;;;;4990476;28;7178;-84
2022/09/26 09:19:56;;;;;;;;;;;;;;;;;;4990782;28;7192;-82
2022/09/26 09:22:31;;;;;;;;;;;;;;;;;;4988948;28;8485;-81
2022/09/26 09:25:04;;;;;;;;;;;;;;;;;;4989790;28;8379;-81
2022/09/26 09:27:49;;;;;;;;;;;;;;;;;;4989920;28;8455;-81
2022/09/26 09:30:21;;;;;;;;;;;;;;;;;;5006038;28;7078;-81
2022/09/26 09:33:03;;;;;;;;;;;;;;;;;;4990329;28;7146;-82
2022/09/26 09:35:37;;;;;;;;;;;;;;;;;;4991287;28;7237;-80
2022/09/26 09:38:06;;;;;;;;;;;;;;;;;;4990639;28;7171;-81
2022/09/26 09:40:40;;;;;;;;;;;;;;;;;;4991347;28;6983;-81
2022/09/26 09:43:13;;;;;;;;;;;;;;;;;;4990980;28;8306;-81
2022/09/26 09:45:50;;;;;;;;;;;;;;;;;;4990916;28;8427;-81
2022/09/26 09:48:16;;;;;;;;;;;;;;;;;;4990829;28;7123;-79
2022/09/26 09:50:49;;;;;;;;;;;;;;;;;;4990994;28;7045;-79
2022/09/26 09:53:24;;;;;;;;;;;;;;;;;;4990993;28;7106;-79
2022/09/26 09:56:01;;;;;;;;;;;;;;;;;;4989540;28;7245;-80
2022/09/26 09:58:42;;;;;;;;;;;;;;;;;;4989428;28;6851;-80
2022/09/26 10:01:23;;;;;;;;;;;;;;;;;;4987852;28;7146;-80
2022/09/26 10:03:49;;;;;;;;;;;;;;;;;;4984516;28;7055;-80
2022/09/26 10:06:14;;;;;;;;;;;;;;;;;;5005429;28;7133;-79
2022/09/26 10:08:40;;;;;;;;;;;;;;;;;;5006777;28;6851;-80
2022/09/26 10:11:10;;;;;;;;;;;;;;;;;;5007022;28;8417;-83
2022/09/26 10:13:38;;;;;;;;;;;;;;;;;;4999887;28;6917;-80
2022/09/26 10:16:05;;;;;;;;;;;;;;;;;;5003694;28;8435;-79
2022/09/26 10:18:32;;;;;;;;;;;;;;;;;;5003351;28;7155;-80
2022/09/26 10:21:07;;;;;;;;;;;;;;;;;;4987212;28;7957;-80
2022/09/26 10:23:45;;;;;;;;;;;;;;;;;;5003147;28;7044;-80
2022/09/26 10:26:12;;;;;;;;;;;;;;;;;;5003483;28;7169;-82
2022/09/26 10:28:47;;;;;;;;;;;;;;;;;;5003343;28;8491;-82
2022/09/26 10:31:29;;;;;;;;;;;;;;;;;;5003293;28;7033;-82
2022/09/26 10:34:01;;;;;;;;;;;;;;;;;;5005460;28;7359;-82
2022/09/26 10:36:35;;;;;;;;;;;;;;;;;;5007419;28;7149;-79
2022/09/26 10:42:02;;;;;;;;;;;;;;;;;;4992322;28;6795;-82
2022/09/26 10:44:32;;;;;;;;;;;;;;;;;;5007357;28;8424;-80
2022/09/26 10:47:07;;;;;;;;;;;;;;;;;;5007439;28;8422;-82
2022/09/26 10:49:47;;;;;;;;;;;;;;;;;;4990754;28;7606;-80
2022/09/26 10:52:23;;;;;;;;;;;;;;;;;;5007524;28;8961;-79
2022/09/26 10:54:54;;;;;;;;;;;;;;;;;;5007364;28;7072;-80
2022/09/26 10:57:44;;;;;;;;;;;;;;;;;;5007122;28;7408;-80
2022/09/26 11:00:17;;;;;;;;;;;;;;;;;;5007293;28;6845;-80
2022/09/26 11:02:46;;;;;;;;;;;;;;;;;;5006775;28;8436;-82
2022/09/26 11:08:03;;;;;;;;;;;;;;;;;;4991698;28;6792;-81
2022/09/26 11:10:31;;;;;;;;;;;;;;;;;;5006958;28;7075;-81
2022/09/26 11:12:57;;;;;;;;;;;;;;;;;;4994290;28;7166;-87
2022/09/26 11:15:22;;;;;;;;;;;;;;;;;;5005979;28;7128;-82
2022/09/26 11:17:50;;;;;;;;;;;;;;;;;;5007211;28;7112;-82
2022/09/26 11:20:21;;;;;;;;;;;;;;;;;;5006889;28;7137;-82
2022/09/26 11:23:01;;;;;;;;;;;;;;;;;;5007300;28;7046;-82
2022/09/26 11:25:31;;;;;;;;;;;;;;;;;;5006572;28;7234;-79
2022/09/26 11:28:05;;;;;;;;;;;;;;;;;;5006627;28;7206;-82
2022/09/26 11:30:36;;;;;;;;;;;;;;;;;;4999189;28;7407;-87
2022/09/26 11:33:07;;;;;;;;;;;;;;;;;;4995000;28;8744;-87
2022/09/26 11:35:32;;;;;;;;;;;;;;;;;;4994531;28;8585;-86
2022/09/26 11:38:09;;;;;;;;;;;;;;;;;;4997446;28;7118;-82
2022/09/26 11:40:38;;;;;;;;;;;;;;;;;;5000259;28;6985;-88
2022/09/26 11:43:03;;;;;;;;;;;;;;;;;;5004210;28;7015;-83
2022/09/26 11:45:41;;;;;;;;;;;;;;;;;;5002412;28;7050;-83
2022/09/26 11:48:24;;;;;;;;;;;;;;;;;;5003493;28;7158;-84
2022/09/26 11:51:11;;;;;;;;;;;;;;;;;;5004499;28;7147;-84
2022/09/26 11:53:50;;;;;;;;;;;;;;;;;;5004824;28;7246;-83
2022/09/26 11:56:44;;;;;;;;;;;;;;;;;;5005713;28;8404;-83
2022/09/26 11:59:30;;;;;;;;;;;;;;;;;;5005169;28;7037;-84
2022/09/26 12:02:14;;;;;;;;;;;;;;;;;;5004618;28;7058;-84
2022/09/26 12:05:05;;;;;;;;;;;;;;;;;;5004808;28;7171;-87
2022/09/26 12:07:49;;;;;;;;;;;;;;;;;;5004671;28;6837;-83
2022/09/26 12:10:17;;;;;;;;;;;;;;;;;;5005123;28;6816;-85
2022/09/26 12:13:06;;;;;;;;;;;;;;;;;;5004743;28;8354;-83
2022/09/26 12:15:45;;;;;;;;;;;;;;;;;;4983485;28;7094;-83
2022/09/26 12:18:29;;;;;;;;;;;;;;;;;;4988235;28;7218;-83
2022/09/26 12:21:17;;;;;;;;;;;;;;;;;;5004881;28;8889;-84
2022/09/26 12:23:52;;;;;;;;;;;;;;;;;;5004306;28;8655;-83
2022/09/26 12:26:29;;;;;;;;;;;;;;;;;;5005084;28;8682;-86
2022/09/26 12:29:04;;;;;;;;;;;;;;;;;;5004253;28;8402;-86
2022/09/26 12:31:30;;;;;;;;;;;;;;;;;;5004898;28;8935;-83
2022/09/26 12:33:59;;;;;;;;;;;;;;;;;;5004744;28;7163;-83
2022/09/26 12:36:39;;;;;;;;;;;;;;;;;;5005008;28;7027;-83
2022/09/26 12:39:31;;;;;;;;;;;;;;;;;;5005396;28;7164;-84
2022/09/26 12:42:09;;;;;;;;;;;;;;;;;;4973021;28;8701;-86
2022/09/26 12:44:34;;;;;;;;;;;;;;;;;;5004695;28;8308;-83
2022/09/26 12:47:00;;;;;;;;;;;;;;;;;;5004264;28;6835;-86
2022/09/26 12:49:46;;;;;;;;;;;;;;;;;;5003740;28;7046;-87
2022/09/26 12:52:17;;;;;;;;;;;;;;;;;;5004194;28;7168;-85
2022/09/26 12:54:55;;;;;;;;;;;;;;;;;;5004021;28;8399;-84
2022/09/26 12:57:26;;;;;;;;;;;;;;;;;;5003178;28;7829;-86
2022/09/26 13:00:08;;;;;;;;;;;;;;;;;;5003860;28;8304;-84
2022/09/26 13:02:33;;;;;;;;;;;;;;;;;;5003627;28;7522;-86
2022/09/26 13:05:08;;;;;;;;;;;;;;;;;;5003161;28;8345;-85
2022/09/26 13:07:38;;;;;;;;;;;;;;;;;;5002932;28;8404;-83
2022/09/26 13:10:09;;;;;;;;;;;;;;;;;;5002671;28;7243;-84
2022/09/26 13:13:14;;;;;;;;;;;;;;;;;;5003143;28;6913;-84
2022/09/26 13:15:51;;;;;;;;;;;;;;;;;;4951309;28;6979;-83
2022/09/26 13:18:25;;;;;;;;;;;;;;;;;;4967064;28;7016;-85
2022/09/26 13:20:57;;;;;;;;;;;;;;;;;;4967230;28;7304;-84
2022/09/26 13:23:29;;;;;;;;;;;;;;;;;;4967579;28;8592;-86
2022/09/26 13:25:54;;;;;;;;;;;;;;;;;;4951374;28;7152;-85
2022/09/26 13:28:32;;;;;;;;;;;;;;;;;;4967263;28;8663;-83
2022/09/26 13:31:03;;;;;;;;;;;;;;;;;;4966244;28;7422;-84
2022/09/26 13:33:38;;;;;;;;;;;;;;;;;;4964625;28;8388;-83
2022/09/26 13:36:08;;;;;;;;;;;;;;;;;;4965715;28;7172;-83
2022/09/26 13:38:52;;;;;;;;;;;;;;;;;;4966662;28;6998;-83
2022/09/26 13:41:24;;;;;;;;;;;;;;;;;;4966778;28;8410;-87
2022/09/26 13:44:21;;;;;;;;;;;;;;;;;;4959454;28;7165;-87
2022/09/26 13:46:47;;;;;;;;;;;;;;;;;;4979893;28;8275;-89
2022/09/26 13:49:25;;;;;;;;;;;;;;;;;;4997084;28;8432;-88
2022/09/26 13:52:09;;;;;;;;;;;;;;;;;;4992808;28;7216;-89
2022/09/26 13:54:39;;;;;;;;;;;;;;;;;;4991111;28;7028;-87
2022/09/26 13:57:23;;;;;;;;;;;;;;;;;;4991154;28;6973;-88
2022/09/26 13:59:50;;;;;;;;;;;;;;;;;;4991410;28;8402;-86
2022/09/26 14:02:21;;;;;;;;;;;;;;;;;;4991574;28;7741;-88
2022/09/26 14:04:48;;;;;;;;;;;;;;;;;;4991600;28;7047;-87
2022/09/26 14:10:00;;;;;;;;;;;;;;;;;;4975825;28;6784;-86
2022/09/26 14:12:44;;;;;;;;;;;;;;;;;;4991857;28;7009;-89
2022/09/26 14:15:19;;;;;;;;;;;;;;;;;;4991933;28;7057;-88
2022/09/26 14:17:46;;;;;;;;;;;;;;;;;;4993035;28;8608;-87
2022/09/26 14:20:32;;;;;;;;;;;;;;;;;;4993413;28;7030;-87
2022/09/26 14:23:00;;;;;;;;;;;;;;;;;;4976481;28;7190;-89
2022/09/26 14:25:43;;;;;;;;;;;;;;;;;;4992038;28;7048;-88
2022/09/26 14:28:20;;;;;;;;;;;;;;;;;;4992994;28;8241;-87
2022/09/26 14:31:04;;;;;;;;;;;;;;;;;;4991425;28;8507;-89
2022/09/26 14:33:32;;;;;;;;;;;;;;;;;;4990863;28;7038;-88
2022/09/26 14:36:16;;;;;;;;;;;;;;;;;;4991317;28;7247;-86
2022/09/26 14:38:46;;;;;;;;;;;;;;;;;;4991019;28;7418;-88
2022/09/26 14:41:20;;;;;;;;;;;;;;;;;;4990464;28;7126;-85
2022/09/26 14:43:48;;;;;;;;;;;;;;;;;;4993105;28;7103;-90
2022/09/26 14:46:17;;;;;;;;;;;;;;;;;;4993910;28;7166;-86
2022/09/26 14:48:44;;;;;;;;;;;;;;;;;;4993352;28;6993;-90
2022/09/26 14:51:09;;;;;;;;;;;;;;;;;;4994113;28;8428;-86
2022/09/26 14:53:47;;;;;;;;;;;;;;;;;;4992435;28;8298;-87
2022/09/26 14:56:15;;;;;;;;;;;;;;;;;;4992202;28;7167;-86
2022/09/26 14:58:41;;;;;;;;;;;;;;;;;;4989048;28;7107;-86
2022/09/26 15:01:09;;;;;;;;;;;;;;;;;;4989365;28;7251;-87
2022/09/26 15:03:36;;;;;;;;;;;;;;;;;;4988985;28;7181;-88
2022/09/26 15:06:03;;;;;;;;;;;;;;;;;;4989424;28;7282;-86
2022/09/26 15:08:31;;;;;;;;;;;;;;;;;;4988942;28;7811;-85
2022/09/26 15:10:58;;;;;;;;;;;;;;;;;;4989588;28;7065;-87
2022/09/26 15:13:38;;;;;;;;;;;;;;;;;;4990703;28;7088;-85
2022/09/26 15:16:14;;;;;;;;;;;;;;;;;;4991185;28;7457;-87
2022/09/26 15:18:49;;;;;;;;;;;;;;;;;;4991330;28;7159;-87
2022/09/26 15:21:36;;;;;;;;;;;;;;;;;;4994973;28;7064;-88
2022/09/26 15:24:04;;;;;;;;;;;;;;;;;;4994871;28;7229;-88
2022/09/26 15:26:35;;;;;;;;;;;;;;;;;;4994627;28;8522;-85
2022/09/26 15:29:05;;;;;;;;;;;;;;;;;;4994428;28;7031;-90
2022/09/26 15:31:44;;;;;;;;;;;;;;;;;;4994055;28;6895;-88
2022/09/26 15:34:14;;;;;;;;;;;;;;;;;;4994045;28;7123;-87
2022/09/26 15:36:42;;;;;;;;;;;;;;;;;;4994763;28;7047;-87
2022/09/26 15:39:26;;;;;;;;;;;;;;;;;;4994237;28;8439;-86
2022/09/26 15:44:44;;;;;;;;;;;;;;;;;;4978869;28;6807;-87
2022/09/26 15:47:43;;;;;;;;;;;;;;;;;;4994114;28;8477;-88
2022/09/26 15:50:15;;;;;;;;;;;;;;;;;;4956408;28;8342;-89
2022/09/26 15:52:49;;;;;;;;;;;;;;;;;;4993739;28;8433;-88
2022/09/26 15:55:22;;;;;;;;;;;;;;;;;;4994268;28;7028;-87
2022/09/26 15:57:51;;;;;;;;;;;;;;;;;;4994488;28;7325;-85
2022/09/26 16:00:17;;;;;;;;;;;;;;;;;;4993666;28;7038;-88
2022/09/26 16:02:43;;;;;;;;;;;;;;;;;;4995615;28;7021;-85
2022/09/26 16:05:11;;;;;;;;;;;;;;;;;;4996083;28;8382;-88
2022/09/26 16:07:40;;;;;;;;;;;;;;;;;;4999219;28;7455;-87
2022/09/26 16:10:19;;;;;;;;;;;;;;;;;;4998918;28;8727;-89
2022/09/26 16:12:46;;;;;;;;;;;;;;;;;;4996980;28;8644;-89
2022/09/26 16:15:18;;;;;;;;;;;;;;;;;;4994465;28;6938;-88
2022/09/26 16:17:51;;;;;;;;;;;;;;;;;;4993925;28;8450;-87
2022/09/26 16:20:17;;;;;;;;;;;;;;;;;;4993437;28;7033;-85
2022/09/26 16:22:50;;;;;;;;;;;;;;;;;;4993600;28;8382;-85
2022/09/26 16:25:34;;;;;;;;;;;;;;;;;;4994322;28;7155;-88
2022/09/26 16:28:19;;;;;;;;;;;;;;;;;;4993180;28;7440;-88
2022/09/26 16:30:57;;;;;;;;;;;;;;;;;;4992640;28;7265;-88
2022/09/26 16:33:25;;;;;;;;;;;;;;;;;;4993171;28;8829;-87
2022/09/26 16:35:51;;;;;;;;;;;;;;;;;;4995895;28;8429;-85
2022/09/26 16:38:23;;;;;;;;;;;;;;;;;;4993700;28;8689;-86
2022/09/26 16:40:50;;;;;;;;;;;;;;;;;;4992947;28;8514;-89
2022/09/26 16:43:22;;;;;;;;;;;;;;;;;;4993145;28;8421;-85
2022/09/26 16:45:50;;;;;;;;;;;;;;;;;;4992555;28;8863;-87
2022/09/26 16:48:34;;;;;;;;;;;;;;;;;;4993183;28;7076;-87
2022/09/26 16:51:15;;;;;;;;;;;;;;;;;;4992791;28;7700;-88
2022/09/26 16:53:45;;;;;;;;;;;;;;;;;;4993212;28;6997;-88
2022/09/26 16:56:13;;;;;;;;;;;;;;;;;;4992483;28;7045;-87
2022/09/26 16:58:57;;;;;;;;;;;;;;;;;;4993536;28;7168;-88
2022/09/26 17:04:16;;;;;;;;;;;;;;;;;;4977665;28;6903;-88
2022/09/26 17:06:43;;;;;;;;;;;;;;;;;;4992412;28;8519;-87
2022/09/26 17:09:17;;;;;;;;;;;;;;;;;;4992502;28;7444;-88
2022/09/26 17:11:47;;;;;;;;;;;;;;;;;;4992627;28;7521;-86
2022/09/26 17:14:15;;;;;;;;;;;;;;;;;;4992113;28;7015;-88
2022/09/26 17:16:43;;;;;;;;;;;;;;;;;;4992468;28;8498;-87
2022/09/26 17:19:14;;;;;;;;;;;;;;;;;;4992768;28;8446;-85
2022/09/26 17:21:39;;;;;;;;;;;;;;;;;;4994956;28;7158;-89
2022/09/26 17:24:12;;;;;;;;;;;;;;;;;;4993866;28;8420;-89
2022/09/26 17:26:38;;;;;;;;;;;;;;;;;;4994919;28;7041;-88
2022/09/26 17:29:06;;;;;;;;;;;;;;;;;;4995386;28;7038;-87
2022/09/26 17:31:33;;;;;;;;;;;;;;;;;;4992253;28;7191;-89
2022/09/26 17:34:00;;;;;;;;;;;;;;;;;;4992998;28;8526;-89
2022/09/26 17:36:27;;;;;;;;;;;;;;;;;;4985829;28;7180;-88
2022/09/26 17:38:53;;;;;;;;;;;;;;;;;;4977361;28;8452;-88
2022/09/26 17:41:20;;;;;;;;;;;;;;;;;;4977775;28;8437;-88
2022/09/26 17:43:46;;;;;;;;;;;;;;;;;;4975115;28;7163;-87
2022/09/26 17:46:14;;;;;;;;;;;;;;;;;;4977943;28;8431;-88
2022/09/26 17:48:40;;;;;;;;;;;;;;;;;;4975781;28;7040;-88
2022/09/26 17:51:08;;;;;;;;;;;;;;;;;;4975352;28;7091;-89
2022/09/26 17:53:38;;;;;;;;;;;;;;;;;;4976246;28;8375;-87
2022/09/26 17:56:07;;;;;;;;;;;;;;;;;;4975509;28;8409;-88
2022/09/26 17:58:33;;;;;;;;;;;;;;;;;;4975789;28;7085;-89
2022/09/26 18:01:02;;;;;;;;;;;;;;;;;;4975799;28;8742;-87
2022/09/26 18:03:31;;;;;;;;;;;;;;;;;;4975939;28;7243;-88
2022/09/26 18:05:58;;;;;;;;;;;;;;;;;;4975718;28;7168;-88
2022/09/26 18:08:29;;;;;;;;;;;;;;;;;;4976110;28;7055;-89
2022/09/26 18:10:57;;;;;;;;;;;;;;;;;;4976589;28;8371;-88
2022/09/26 18:13:30;;;;;;;;;;;;;;;;;;4975712;28;9346;-87
2022/09/26 18:15:59;;;;;;;;;;;;;;;;;;4976052;28;7167;-88
2022/09/26 18:18:27;;;;;;;;;;;;;;;;;;4975301;28;6834;-88
2022/09/26 18:20:56;;;;;;;;;;;;;;;;;;4975384;28;7126;-88
2022/09/26 18:23:27;;;;;;;;;;;;;;;;;;4975422;28;7031;-88
2022/09/26 18:25:57;;;;;;;;;;;;;;;;;;4975111;28;8531;-88
2022/09/26 18:28:24;;;;;;;;;;;;;;;;;;4975388;28;7185;-88
2022/09/26 18:30:52;;;;;;;;;;;;;;;;;;4976051;28;7403;-89